MAS1450 WMKK-WMKL
Flight info
| Callsign | MAS1450 |
|---|---|
| Flight time | 0h 45m |
| Altitude | 30000 |
| Route | ATIMU1E ATIMU Y506 VPG W525 KAPKO KAPKO1E |
| Aircraft | B38M/M-SDE1FGHILORVWXY/HB1 |
Departure
| Time | 2026-04-25 07:32 |
|---|---|
| Airport | Kuala Lumpur International Airport (WMKK) |
Arrival
| Time | 2026-04-25 08:18 |
|---|---|
| Airport | Langkawi International Airport (WMKL) |
| Time | Latitude | Longitude | Altitude | Speed | Heading |
|---|---|---|---|---|---|
| 2026-04-25 06:50 | 2.75527 | 101.70822 | 75 ft | 0 kts | 146° |
| 2026-04-25 07:18 | 2.75528 | 101.70822 | 75 ft | 1 kts | 146° |
| 2026-04-25 07:18 | 2.75537 | 101.70816 | 64 ft | 2 kts | 146° |
| 2026-04-25 07:19 | 2.75551 | 101.70804 | 69 ft | 3 kts | 119° |
| 2026-04-25 07:19 | 2.75555 | 101.70794 | 68 ft | 3 kts | 86° |
| 2026-04-25 07:19 | 2.75546 | 101.70773 | 72 ft | 2 kts | 57° |
| 2026-04-25 07:19 | 2.75545 | 101.70771 | 67 ft | 1 kts | 56° |
| 2026-04-25 07:24 | 2.75547 | 101.70775 | 71 ft | 2 kts | 56° |
| 2026-04-25 07:24 | 2.75565 | 101.70792 | 66 ft | 5 kts | 35° |
| 2026-04-25 07:24 | 2.75606 | 101.70810 | 70 ft | 8 kts | 30° |
| 2026-04-25 07:24 | 2.75647 | 101.70856 | 71 ft | 10 kts | 55° |
| 2026-04-25 07:25 | 2.75692 | 101.70923 | 69 ft | 13 kts | 56° |
| 2026-04-25 07:25 | 2.75746 | 101.71004 | 73 ft | 14 kts | 56° |
| 2026-04-25 07:25 | 2.75785 | 101.71062 | 74 ft | 5 kts | 56° |
| 2026-04-25 07:25 | 2.75808 | 101.71097 | 73 ft | 8 kts | 56° |
| 2026-04-25 07:26 | 2.75815 | 101.71108 | 74 ft | 0 kts | 56° |
| 2026-04-25 07:27 | 2.75818 | 101.71111 | 68 ft | 2 kts | 56° |
| 2026-04-25 07:27 | 2.75833 | 101.71134 | 66 ft | 6 kts | 56° |
| 2026-04-25 07:27 | 2.75868 | 101.71186 | 71 ft | 11 kts | 57° |
| 2026-04-25 07:27 | 2.75890 | 101.71222 | 69 ft | 6 kts | 64° |
| 2026-04-25 07:28 | 2.75888 | 101.71262 | 69 ft | 6 kts | 114° |
| 2026-04-25 07:28 | 2.75855 | 101.71292 | 73 ft | 7 kts | 150° |
| 2026-04-25 07:28 | 2.75808 | 101.71322 | 72 ft | 9 kts | 143° |
| 2026-04-25 07:28 | 2.75750 | 101.71364 | 71 ft | 12 kts | 145° |
| 2026-04-25 07:29 | 2.75684 | 101.71409 | 72 ft | 12 kts | 146° |
| 2026-04-25 07:29 | 2.75607 | 101.71462 | 75 ft | 15 kts | 146° |
| 2026-04-25 07:29 | 2.75566 | 101.71549 | 77 ft | 15 kts | 69° |
| 2026-04-25 07:29 | 2.75617 | 101.71635 | 69 ft | 11 kts | 58° |
| 2026-04-25 07:30 | 2.75674 | 101.71647 | 77 ft | 0 kts | 324° |
| 2026-04-25 07:31 | 2.75674 | 101.71646 | 77 ft | 0 kts | 324° |
| 2026-04-25 07:31 | 2.75685 | 101.71638 | 69 ft | 4 kts | 324° |
| 2026-04-25 07:31 | 2.75730 | 101.71607 | 73 ft | 18 kts | 326° |
| 2026-04-25 07:31 | 2.76055 | 101.71389 | 69 ft | 95 kts | 326° |
| 2026-04-25 07:32 | 2.76795 | 101.70891 | 70 ft | 159 kts | 326° |
| 2026-04-25 07:32 | 2.77791 | 101.70210 | 506 ft | 182 kts | 326° |
| 2026-04-25 07:32 | 2.78843 | 101.69509 | 1306 ft | 183 kts | 325° |
| 2026-04-25 07:32 | 2.79977 | 101.68880 | 2006 ft | 189 kts | 338° |
| 2026-04-25 07:33 | 2.81187 | 101.68410 | 2836 ft | 186 kts | 335° |
| 2026-04-25 07:33 | 2.82274 | 101.67664 | 3548 ft | 195 kts | 320° |
| 2026-04-25 07:33 | 2.83309 | 101.66772 | 4381 ft | 198 kts | 322° |
| 2026-04-25 07:33 | 2.84397 | 101.65858 | 5057 ft | 210 kts | 323° |
| 2026-04-25 07:34 | 2.85557 | 101.64894 | 5670 ft | 225 kts | 323° |
| 2026-04-25 07:34 | 2.86806 | 101.63862 | 6257 ft | 241 kts | 323° |
| 2026-04-25 07:34 | 2.88150 | 101.62758 | 6789 ft | 259 kts | 323° |
| 2026-04-25 07:34 | 2.89596 | 101.61575 | 7305 ft | 277 kts | 323° |
| 2026-04-25 07:35 | 2.91138 | 101.60313 | 7803 ft | 295 kts | 323° |
| 2026-04-25 07:35 | 2.92779 | 101.58972 | 8249 ft | 315 kts | 322° |
| 2026-04-25 07:35 | 2.94527 | 101.57545 | 8625 ft | 333 kts | 322° |
| 2026-04-25 07:35 | 2.96375 | 101.56035 | 8965 ft | 351 kts | 322° |
| 2026-04-25 07:36 | 2.98266 | 101.54490 | 9247 ft | 366 kts | 322° |
| 2026-04-25 07:36 | 3.00253 | 101.52866 | 9492 ft | 380 kts | 322° |
| 2026-04-25 07:36 | 3.02335 | 101.51166 | 9745 ft | 392 kts | 322° |
| 2026-04-25 07:36 | 3.04480 | 101.49413 | 9834 ft | 404 kts | 322° |
| 2026-04-25 07:37 | 3.06664 | 101.47628 | 10286 ft | 404 kts | 322° |
| 2026-04-25 07:37 | 3.08841 | 101.45847 | 10685 ft | 408 kts | 322° |
| 2026-04-25 07:37 | 3.11054 | 101.44037 | 11142 ft | 410 kts | 322° |
| 2026-04-25 07:37 | 3.13276 | 101.42220 | 11619 ft | 413 kts | 322° |
| 2026-04-25 07:38 | 3.15508 | 101.40394 | 12120 ft | 416 kts | 322° |
| 2026-04-25 07:38 | 3.17757 | 101.38554 | 12658 ft | 419 kts | 322° |
| 2026-04-25 07:38 | 3.20009 | 101.36712 | 13444 ft | 416 kts | 322° |
| 2026-04-25 07:38 | 3.22234 | 101.34891 | 14288 ft | 410 kts | 322° |
| 2026-04-25 07:39 | 3.24427 | 101.33096 | 15195 ft | 404 kts | 322° |
| 2026-04-25 07:39 | 3.26586 | 101.31330 | 16191 ft | 396 kts | 322° |
| 2026-04-25 07:39 | 3.28700 | 101.29599 | 17210 ft | 389 kts | 322° |
| 2026-04-25 07:39 | 3.30781 | 101.27896 | 18234 ft | 382 kts | 323° |
| 2026-04-25 07:40 | 3.32789 | 101.26253 | 19103 ft | 375 kts | 323° |
| 2026-04-25 07:40 | 3.34801 | 101.24606 | 19904 ft | 372 kts | 323° |
| 2026-04-25 07:40 | 3.36825 | 101.22949 | 20444 ft | 378 kts | 322° |
| 2026-04-25 07:40 | 3.38871 | 101.21275 | 21024 ft | 381 kts | 322° |
| 2026-04-25 07:41 | 3.40925 | 101.19593 | 21586 ft | 385 kts | 322° |
| 2026-04-25 07:41 | 3.43010 | 101.17888 | 22146 ft | 388 kts | 322° |
| 2026-04-25 07:41 | 3.45110 | 101.16168 | 22698 ft | 391 kts | 322° |
| 2026-04-25 07:41 | 3.47228 | 101.14435 | 23252 ft | 395 kts | 322° |
| 2026-04-25 07:42 | 3.49364 | 101.12686 | 23726 ft | 398 kts | 322° |
| 2026-04-25 07:42 | 3.51520 | 101.10921 | 24163 ft | 401 kts | 322° |
| 2026-04-25 07:42 | 3.53689 | 101.09145 | 24622 ft | 404 kts | 322° |
| 2026-04-25 07:42 | 3.55873 | 101.07356 | 25072 ft | 407 kts | 322° |
| 2026-04-25 07:43 | 3.58076 | 101.05552 | 25515 ft | 410 kts | 322° |
| 2026-04-25 07:43 | 3.60293 | 101.03737 | 25938 ft | 413 kts | 322° |
| 2026-04-25 07:43 | 3.62529 | 101.01906 | 26359 ft | 416 kts | 322° |
| 2026-04-25 07:43 | 3.64748 | 101.00089 | 26794 ft | 419 kts | 322° |
| 2026-04-25 07:44 | 3.67059 | 100.98298 | 27201 ft | 421 kts | 330° |
| 2026-04-25 07:44 | 3.69705 | 100.97042 | 27626 ft | 421 kts | 338° |
| 2026-04-25 07:44 | 3.72392 | 100.95825 | 27979 ft | 426 kts | 337° |
| 2026-04-25 07:44 | 3.75095 | 100.94599 | 28389 ft | 428 kts | 337° |
| 2026-04-25 07:45 | 3.77825 | 100.93375 | 28783 ft | 431 kts | 337° |
| 2026-04-25 07:45 | 3.80579 | 100.92146 | 29173 ft | 434 kts | 337° |
| 2026-04-25 07:45 | 3.83355 | 100.90910 | 29568 ft | 437 kts | 337° |
| 2026-04-25 07:45 | 3.86138 | 100.89671 | 29854 ft | 438 kts | 337° |
| 2026-04-25 07:46 | 3.91687 | 100.87201 | 29845 ft | 435 kts | 337° |
| 2026-04-25 07:46 | 3.97216 | 100.84740 | 29839 ft | 435 kts | 337° |
| 2026-04-25 07:47 | 4.02756 | 100.82273 | 29836 ft | 435 kts | 337° |
| 2026-04-25 07:47 | 4.08281 | 100.79812 | 29835 ft | 435 kts | 337° |
| 2026-04-25 07:48 | 4.13776 | 100.77365 | 29830 ft | 434 kts | 337° |
| 2026-04-25 07:48 | 4.19300 | 100.74893 | 29832 ft | 434 kts | 337° |
| 2026-04-25 07:49 | 4.24822 | 100.72416 | 29828 ft | 434 kts | 337° |
| 2026-04-25 07:49 | 4.30340 | 100.69939 | 29831 ft | 434 kts | 337° |
| 2026-04-25 07:50 | 4.35819 | 100.67480 | 29831 ft | 434 kts | 337° |
| 2026-04-25 07:50 | 4.41335 | 100.65005 | 29836 ft | 434 kts | 337° |
| 2026-04-25 07:51 | 4.46846 | 100.62531 | 29843 ft | 434 kts | 337° |
| 2026-04-25 07:51 | 4.52363 | 100.60054 | 29847 ft | 434 kts | 337° |
| 2026-04-25 07:52 | 4.57886 | 100.57574 | 29851 ft | 434 kts | 337° |
| 2026-04-25 07:52 | 4.63371 | 100.55110 | 29852 ft | 434 kts | 337° |
| 2026-04-25 07:53 | 4.68884 | 100.52634 | 29853 ft | 434 kts | 337° |
| 2026-04-25 07:53 | 4.74396 | 100.50157 | 29848 ft | 434 kts | 337° |
| 2026-04-25 07:54 | 4.79914 | 100.47677 | 29855 ft | 434 kts | 337° |
| 2026-04-25 07:54 | 4.85296 | 100.45259 | 29702 ft | 415 kts | 337° |
| 2026-04-25 07:55 | 4.87907 | 100.44085 | 29333 ft | 409 kts | 337° |
| 2026-04-25 07:55 | 4.90499 | 100.42920 | 28829 ft | 406 kts | 337° |
| 2026-04-25 07:55 | 4.93077 | 100.41761 | 28348 ft | 404 kts | 337° |
| 2026-04-25 07:55 | 4.95634 | 100.40612 | 27887 ft | 401 kts | 337° |
| 2026-04-25 07:56 | 4.98170 | 100.39471 | 27436 ft | 398 kts | 337° |
| 2026-04-25 07:56 | 5.00688 | 100.38339 | 26986 ft | 395 kts | 337° |
| 2026-04-25 07:56 | 5.02347 | 100.37592 | 26689 ft | 394 kts | 337° |
| 2026-04-25 07:56 | 5.04661 | 100.36552 | 26278 ft | 391 kts | 337° |
| 2026-04-25 07:57 | 5.07140 | 100.35437 | 25833 ft | 389 kts | 337° |
| 2026-04-25 07:57 | 5.09615 | 100.34324 | 25384 ft | 389 kts | 338° |
| 2026-04-25 07:57 | 5.12085 | 100.33212 | 24938 ft | 389 kts | 338° |
| 2026-04-25 07:57 | 5.14551 | 100.32103 | 24494 ft | 388 kts | 338° |
| 2026-04-25 07:58 | 5.17012 | 100.30996 | 24050 ft | 388 kts | 338° |
| 2026-04-25 07:58 | 5.19447 | 100.29900 | 23608 ft | 384 kts | 338° |
| 2026-04-25 07:58 | 5.21855 | 100.28816 | 23139 ft | 375 kts | 338° |
| 2026-04-25 07:58 | 5.24218 | 100.27753 | 22668 ft | 371 kts | 338° |
| 2026-04-25 07:59 | 5.26576 | 100.26691 | 22217 ft | 371 kts | 338° |
| 2026-04-25 07:59 | 5.28922 | 100.25593 | 21715 ft | 373 kts | 336° |
| 2026-04-25 07:59 | 5.31258 | 100.24468 | 21299 ft | 371 kts | 336° |
| 2026-04-25 07:59 | 5.33579 | 100.23356 | 20897 ft | 369 kts | 336° |
| 2026-04-25 08:00 | 5.35893 | 100.22249 | 20489 ft | 368 kts | 336° |
| 2026-04-25 08:00 | 5.38201 | 100.21145 | 20072 ft | 366 kts | 336° |
| 2026-04-25 08:00 | 5.40494 | 100.20048 | 19650 ft | 365 kts | 336° |
| 2026-04-25 08:00 | 5.42785 | 100.18952 | 19227 ft | 363 kts | 336° |
| 2026-04-25 08:01 | 5.45055 | 100.17867 | 18813 ft | 361 kts | 336° |
| 2026-04-25 08:01 | 5.47319 | 100.16784 | 18395 ft | 360 kts | 336° |
| 2026-04-25 08:01 | 5.49573 | 100.15705 | 17958 ft | 358 kts | 336° |
| 2026-04-25 08:01 | 5.51821 | 100.14630 | 17501 ft | 357 kts | 336° |
| 2026-04-25 08:02 | 5.54054 | 100.13561 | 17072 ft | 352 kts | 336° |
| 2026-04-25 08:02 | 5.56234 | 100.12518 | 16672 ft | 341 kts | 336° |
| 2026-04-25 08:02 | 5.58342 | 100.11510 | 16285 ft | 329 kts | 336° |
| 2026-04-25 08:02 | 5.60349 | 100.10549 | 15901 ft | 319 kts | 336° |
| 2026-04-25 08:03 | 5.62325 | 100.09604 | 15515 ft | 310 kts | 336° |
| 2026-04-25 08:03 | 5.64256 | 100.08679 | 15147 ft | 306 kts | 336° |
| 2026-04-25 08:03 | 5.66162 | 100.07767 | 14773 ft | 300 kts | 336° |
| 2026-04-25 08:03 | 5.68033 | 100.06872 | 14423 ft | 295 kts | 336° |
| 2026-04-25 08:04 | 5.69873 | 100.05991 | 14064 ft | 293 kts | 336° |
| 2026-04-25 08:04 | 5.71721 | 100.05106 | 13708 ft | 294 kts | 336° |
| 2026-04-25 08:04 | 5.73572 | 100.04219 | 13296 ft | 294 kts | 336° |
| 2026-04-25 08:04 | 5.75420 | 100.03335 | 12893 ft | 294 kts | 336° |
| 2026-04-25 08:05 | 5.76643 | 100.02749 | 12674 ft | 293 kts | 336° |
| 2026-04-25 08:05 | 5.79079 | 100.01583 | 12282 ft | 287 kts | 336° |
| 2026-04-25 08:05 | 5.80871 | 100.00724 | 11965 ft | 285 kts | 336° |
| 2026-04-25 08:05 | 5.82052 | 100.00159 | 11743 ft | 284 kts | 336° |
| 2026-04-25 08:06 | 5.83835 | 99.99305 | 11410 ft | 283 kts | 336° |
| 2026-04-25 08:06 | 5.85619 | 99.98450 | 11048 ft | 284 kts | 336° |
| 2026-04-25 08:06 | 5.87404 | 99.97595 | 10702 ft | 285 kts | 336° |
| 2026-04-25 08:06 | 5.89201 | 99.96734 | 10323 ft | 286 kts | 336° |
| 2026-04-25 08:07 | 5.90975 | 99.95884 | 10075 ft | 275 kts | 336° |
| 2026-04-25 08:07 | 5.92663 | 99.95075 | 9841 ft | 263 kts | 336° |
| 2026-04-25 08:07 | 5.94300 | 99.94291 | 9472 ft | 258 kts | 336° |
| 2026-04-25 08:07 | 5.95770 | 99.93287 | 9040 ft | 257 kts | 311° |
| 2026-04-25 08:08 | 5.96762 | 99.91839 | 8685 ft | 254 kts | 303° |
| 2026-04-25 08:08 | 5.97709 | 99.90343 | 8387 ft | 254 kts | 303° |
| 2026-04-25 08:08 | 5.98651 | 99.88843 | 8063 ft | 253 kts | 303° |
| 2026-04-25 08:08 | 5.99586 | 99.87342 | 7693 ft | 253 kts | 303° |
| 2026-04-25 08:09 | 6.00513 | 99.85847 | 7421 ft | 252 kts | 302° |
| 2026-04-25 08:09 | 6.01449 | 99.84330 | 7092 ft | 261 kts | 303° |
| 2026-04-25 08:09 | 6.02413 | 99.82765 | 6567 ft | 264 kts | 303° |
| 2026-04-25 08:09 | 6.03361 | 99.81226 | 6291 ft | 254 kts | 303° |
| 2026-04-25 08:10 | 6.04270 | 99.79751 | 6039 ft | 244 kts | 303° |
| 2026-04-25 08:10 | 6.05152 | 99.78318 | 5754 ft | 238 kts | 303° |
| 2026-04-25 08:10 | 6.06015 | 99.76915 | 5505 ft | 232 kts | 303° |
| 2026-04-25 08:10 | 6.06751 | 99.75719 | 5358 ft | 222 kts | 303° |
| 2026-04-25 08:11 | 6.07510 | 99.74484 | 5185 ft | 213 kts | 303° |
| 2026-04-25 08:11 | 6.08293 | 99.73212 | 4745 ft | 215 kts | 304° |
| 2026-04-25 08:11 | 6.09079 | 99.71935 | 4462 ft | 213 kts | 304° |
| 2026-04-25 08:11 | 6.09854 | 99.70673 | 4191 ft | 212 kts | 304° |
| 2026-04-25 08:12 | 6.10617 | 99.69432 | 3938 ft | 210 kts | 304° |
| 2026-04-25 08:12 | 6.11397 | 99.68198 | 3635 ft | 209 kts | 310° |
| 2026-04-25 08:12 | 6.12469 | 99.67252 | 3387 ft | 201 kts | 326° |
| 2026-04-25 08:12 | 6.13568 | 99.66447 | 3267 ft | 192 kts | 325° |
| 2026-04-25 08:13 | 6.14653 | 99.65654 | 3023 ft | 193 kts | 325° |
| 2026-04-25 08:13 | 6.15742 | 99.64863 | 2776 ft | 193 kts | 325° |
| 2026-04-25 08:13 | 6.16823 | 99.64082 | 2563 ft | 191 kts | 325° |
| 2026-04-25 08:14 | 6.18983 | 99.62542 | 2106 ft | 187 kts | 326° |
| 2026-04-25 08:14 | 6.20093 | 99.61882 | 1895 ft | 192 kts | 351° |
| 2026-04-25 08:14 | 6.21395 | 99.61958 | 1776 ft | 183 kts | 20° |
| 2026-04-25 08:14 | 6.22485 | 99.62631 | 1935 ft | 188 kts | 44° |
| 2026-04-25 08:15 | 6.23090 | 99.63774 | 2131 ft | 188 kts | 71° |
| 2026-04-25 08:15 | 6.23462 | 99.65036 | 2521 ft | 190 kts | 74° |
| 2026-04-25 08:15 | 6.23861 | 99.66311 | 2308 ft | 195 kts | 60° |
| 2026-04-25 08:15 | 6.24790 | 99.67409 | 1606 ft | 217 kts | 39° |
| 2026-04-25 08:16 | 6.26034 | 99.68300 | 1061 ft | 220 kts | 33° |
| 2026-04-25 08:16 | 6.27245 | 99.69128 | 928 ft | 190 kts | 27° |
| 2026-04-25 08:16 | 6.28332 | 99.69747 | 638 ft | 175 kts | 30° |
| 2026-04-25 08:16 | 6.29304 | 99.70373 | 419 ft | 155 kts | 33° |
| 2026-04-25 08:17 | 6.30164 | 99.70953 | 295 ft | 146 kts | 33° |
| 2026-04-25 08:17 | 6.31020 | 99.71520 | 269 ft | 149 kts | 28° |
| 2026-04-25 08:17 | 6.31863 | 99.72114 | 107 ft | 147 kts | 31° |
| 2026-04-25 08:17 | 6.32704 | 99.72678 | 44 ft | 139 kts | 32° |
| 2026-04-25 08:18 | 6.33379 | 99.73137 | 40 ft | 84 kts | 35° |
| 2026-04-25 08:18 | 6.33654 | 99.73327 | 39 ft | 23 kts | 33° |
| 2026-04-25 08:18 | 6.33773 | 99.73315 | 39 ft | 12 kts | 305° |
| 2026-04-25 08:18 | 6.33779 | 99.73307 | 39 ft | 0 kts | 304° |
| 2026-04-25 08:19 | 6.33786 | 99.73297 | 38 ft | 4 kts | 304° |
| 2026-04-25 08:19 | 6.33809 | 99.73263 | 37 ft | 8 kts | 304° |
| 2026-04-25 08:19 | 6.33847 | 99.73211 | 38 ft | 11 kts | 316° |
| 2026-04-25 08:20 | 6.33910 | 99.73213 | 38 ft | 10 kts | 29° |
| 2026-04-25 08:20 | 6.33977 | 99.73258 | 38 ft | 13 kts | 33° |
| 2026-04-25 08:20 | 6.34033 | 99.73288 | 38 ft | 7 kts | 356° |
| 2026-04-25 08:20 | 6.34070 | 99.73253 | 38 ft | 9 kts | 305° |
| 2026-04-25 08:21 | 6.34072 | 99.73249 | 38 ft | 0 kts | 305° |